Pagrindinis puslapis
METAR-TAF:

METAR-TAF

Oro uostai :

Bandirma, Turkija

platuma: 40-19N, ilguma: 027-58E, Aukštis: 51 m

METAR: trūkstamas

Laikas: 09:16 (06:16 UTC)

Prognozė

Ataskaita buvo paskelbta 25 valandos ir 36 minutes, ne 04:40 UTC
Prognozė galioja nuo 09 metu 06 UTC su 09 metu 15 UTC
Vėjas 15 kt iš Šiaurės/Šiaurės Rytų
Matomumas 10 km arba daugiau
Mažai debesys ne aukštis 1500 ft
Išsisklaidę debesys ne aukštis 3500 ft

TAF: LTBG 090440Z 0906/0915 03015KT 9999 FEW015 SCT035

Orai ataskaitas ir orų prognozės (METAR, TAF).

turimą stotys yra geltonos ir raudonos taškus žemėlapyje.

Perkelti pele per norėdami pamatyti stoties vardą.

Tada spustelėkite, norėdami matyti oro stebėjimo ir prognozės.

Norėdami pakeisti žemėlapį: spustelėkite ant žalios mygtukų su juodo kryžiaus žemyn,; žalią mygtuką su brūkšneliu, jei norite nutolinti; arba žalių rodyklių gretimoms žemėlapius.


METAR-TAF: